createdAt,value
2018-09-27T00:00:40.338Z,0
2018-09-27T00:01:50.502Z,0
2018-09-27T00:03:00.877Z,0
2018-09-27T00:04:10.812Z,0
2018-09-27T00:05:21.017Z,0
2018-09-27T00:06:31.177Z,0
2018-09-27T00:07:41.338Z,0
2018-09-27T00:08:51.263Z,0
2018-09-27T00:10:01.153Z,0
2018-09-27T00:11:10.775Z,0
2018-09-27T00:12:20.977Z,0
2018-09-27T00:13:30.636Z,0
2018-09-27T00:14:40.799Z,0
2018-09-27T00:15:51.000Z,0
2018-09-27T00:17:01.171Z,0
2018-09-27T00:18:11.060Z,0
2018-09-27T00:19:21.254Z,0
2018-09-27T00:20:31.146Z,0
2018-09-27T00:21:41.346Z,0
2018-09-27T00:22:51.521Z,0
2018-09-27T00:24:01.342Z,0
2018-09-27T00:25:11.239Z,0
2018-09-27T00:26:21.130Z,0
2018-09-27T00:27:30.759Z,0
2018-09-27T00:28:40.938Z,0
2018-09-27T00:29:51.102Z,0
2018-09-27T00:31:00.996Z,0
2018-09-27T00:32:10.646Z,0
2018-09-27T00:33:20.305Z,0
2018-09-27T00:34:30.482Z,0
2018-09-27T00:35:40.378Z,0
2018-09-27T00:36:49.997Z,0
2018-09-27T00:37:59.890Z,0
2018-09-27T00:39:09.517Z,0
2018-09-27T00:40:19.440Z,0
2018-09-27T00:41:29.605Z,0
2018-09-27T00:42:39.221Z,0
2018-09-27T00:43:48.876Z,0
2018-09-27T00:44:58.949Z,0
2018-09-27T00:46:09.097Z,0
2018-09-27T00:47:19.267Z,0
2018-09-27T00:48:29.446Z,0
2018-09-27T00:49:39.619Z,0
2018-09-27T00:50:49.787Z,0
2018-09-27T00:51:59.400Z,0
2018-09-27T00:53:09.569Z,0
2018-09-27T00:54:19.182Z,0
2018-09-27T00:55:29.071Z,0
2018-09-27T00:56:38.448Z,0
2018-09-27T00:57:54.660Z,0
2018-09-27T00:59:04.287Z,0
2018-09-27T01:00:14.208Z,0
2018-09-27T01:01:23.563Z,0
2018-09-27T01:02:33.459Z,0
2018-09-27T01:03:43.360Z,0
2018-09-27T01:04:53.244Z,0
2018-09-27T01:06:03.141Z,0
2018-09-27T01:07:13.037Z,0
2018-09-27T01:08:22.973Z,0
2018-09-27T01:09:32.586Z,0
2018-09-27T01:10:42.752Z,0
2018-09-27T01:11:52.921Z,0
2018-09-27T01:13:03.093Z,0
2018-09-27T01:14:12.431Z,0
2018-09-27T01:15:22.336Z,0
2018-09-27T01:16:32.505Z,0
2018-09-27T01:17:42.150Z,0
2018-09-27T01:18:52.084Z,0
2018-09-27T01:20:02.260Z,0
2018-09-27T01:21:12.115Z,0
2018-09-27T01:22:21.733Z,0
2018-09-27T01:23:31.629Z,0
2018-09-27T01:24:41.793Z,0
2018-09-27T01:25:51.681Z,0
2018-09-27T01:27:01.568Z,0
2018-09-27T01:28:11.187Z,0
2018-09-27T01:29:21.090Z,0
2018-09-27T01:30:31.000Z,0
2018-09-27T01:31:40.620Z,0
2018-09-27T01:32:50.280Z,0
2018-09-27T01:34:00.174Z,0
2018-09-27T01:35:10.105Z,0
2018-09-27T01:36:20.007Z,0
2018-09-27T01:37:29.897Z,0
2018-09-27T01:38:39.789Z,0
2018-09-27T01:39:49.132Z,0
2018-09-27T01:40:59.015Z,0
2018-09-27T01:42:08.644Z,0
2018-09-27T01:43:18.258Z,0
2018-09-27T01:44:27.889Z,0
2018-09-27T01:45:37.511Z,0
2018-09-27T01:46:47.737Z,0
2018-09-27T01:47:57.684Z,0
2018-09-27T01:49:07.844Z,0
2018-09-27T01:50:17.505Z,0
2018-09-27T01:51:27.668Z,0
2018-09-27T01:52:37.571Z,0
2018-09-27T01:53:47.732Z,0
2018-09-27T01:54:57.109Z,0
2018-09-27T01:56:07.084Z,0
2018-09-27T01:57:17.255Z,0
2018-09-27T01:58:27.154Z,0
2018-09-27T01:59:37.050Z,0
2018-09-27T02:00:46.955Z,0
2018-09-27T02:01:57.150Z,0
2018-09-27T02:03:07.318Z,0
2018-09-27T02:04:16.944Z,0
2018-09-27T02:05:26.834Z,0
2018-09-27T02:06:36.763Z,0
2018-09-27T02:07:46.981Z,0
2018-09-27T02:08:57.159Z,0
2018-09-27T02:10:07.018Z,0
2018-09-27T02:11:17.185Z,0
2018-09-27T02:12:27.080Z,0
2018-09-27T02:13:37.245Z,0
2018-09-27T02:14:47.415Z,0
2018-09-27T02:15:56.769Z,0
2018-09-27T02:17:06.653Z,0
2018-09-27T02:18:15.997Z,0
2018-09-27T02:19:25.900Z,0
2018-09-27T02:20:35.515Z,0
2018-09-27T02:21:45.422Z,0
2018-09-27T02:22:55.588Z,0
2018-09-27T02:24:05.750Z,0
2018-09-27T02:25:15.726Z,0
2018-09-27T02:26:25.337Z,0
2018-09-27T02:27:34.998Z,0
2018-09-27T02:28:44.606Z,0
2018-09-27T02:29:54.781Z,0
2018-09-27T02:31:04.704Z,0
2018-09-27T02:32:14.596Z,0
2018-09-27T02:33:24.500Z,0
2018-09-27T02:34:34.409Z,0
2018-09-27T02:35:44.590Z,0
2018-09-27T02:36:54.535Z,0
2018-09-27T02:38:03.883Z,0
2018-09-27T02:39:13.773Z,0
2018-09-27T02:40:23.664Z,0
2018-09-27T02:41:33.825Z,0
2018-09-27T02:42:44.034Z,0
2018-09-27T02:43:53.929Z,0
2018-09-27T02:45:04.130Z,0
2018-09-27T02:46:13.750Z,0
2018-09-27T02:47:23.686Z,0
2018-09-27T02:48:33.861Z,0
2018-09-27T02:49:43.760Z,0
2018-09-27T02:50:53.649Z,0
2018-09-27T02:52:03.868Z,0
2018-09-27T02:53:14.042Z,0
2018-09-27T02:54:23.400Z,0
2018-09-27T02:55:33.291Z,0
2018-09-27T02:56:43.451Z,0
2018-09-27T02:57:53.620Z,0
2018-09-27T02:59:03.720Z,0
2018-09-27T03:00:13.664Z,0
2018-09-27T03:01:23.555Z,0
2018-09-27T03:02:33.732Z,0
2018-09-27T03:03:43.357Z,0
2018-09-27T03:04:53.004Z,0
2018-09-27T03:06:02.948Z,0
2018-09-27T03:07:12.848Z,0
2018-09-27T03:08:22.476Z,0
2018-09-27T03:09:32.100Z,0
2018-09-27T03:10:41.441Z,0
2018-09-27T03:11:51.346Z,0
2018-09-27T03:13:01.265Z,0
2018-09-27T03:14:11.598Z,0
2018-09-27T03:15:20.941Z,0
2018-09-27T03:16:30.902Z,0
2018-09-27T03:17:40.578Z,0
2018-09-27T03:18:50.475Z,0
2018-09-27T03:20:00.642Z,0
2018-09-27T03:21:10.570Z,0
2018-09-27T03:22:19.910Z,0
2018-09-27T03:23:29.803Z,0
2018-09-27T03:24:39.702Z,0
2018-09-27T03:25:49.325Z,0
2018-09-27T03:26:58.976Z,0
2018-09-27T03:28:08.880Z,0
2018-09-27T03:29:18.826Z,0
2018-09-27T03:30:28.786Z,0
2018-09-27T03:31:38.978Z,0
2018-09-27T03:32:48.908Z,0
2018-09-27T03:33:59.099Z,0
2018-09-27T03:35:09.476Z,0
2018-09-27T03:36:19.402Z,0
2018-09-27T03:37:29.301Z,0
2018-09-27T03:38:39.208Z,0
2018-09-27T03:39:49.794Z,0
2018-09-27T03:40:59.434Z,0
2018-09-27T03:42:09.365Z,0
2018-09-27T03:43:18.984Z,0
2018-09-27T03:44:29.090Z,0
2018-09-27T03:45:38.719Z,0
2018-09-27T03:46:48.954Z,0
2018-09-27T03:47:58.844Z,0
2018-09-27T03:49:08.756Z,0
2018-09-27T03:50:18.095Z,0
2018-09-27T03:51:27.989Z,0
2018-09-27T03:52:38.405Z,0
2018-09-27T03:53:48.021Z,0
2018-09-27T03:54:57.951Z,0
2018-09-27T03:56:07.841Z,0
2018-09-27T03:57:17.472Z,0
2018-09-27T03:58:27.638Z,0
2018-09-27T03:59:37.808Z,0
2018-09-27T04:00:47.706Z,0
2018-09-27T04:01:57.871Z,0
2018-09-27T04:03:07.876Z,0
2018-09-27T04:04:17.488Z,0
2018-09-27T04:05:27.112Z,0
2018-09-27T04:06:37.095Z,0
2018-09-27T04:07:46.444Z,0
2018-09-27T04:08:56.614Z,0
2018-09-27T04:10:06.556Z,0
2018-09-27T04:11:16.456Z,0
2018-09-27T04:12:26.671Z,0
2018-09-27T04:13:36.564Z,0
2018-09-27T04:14:46.185Z,0
2018-09-27T04:15:56.515Z,0
2018-09-27T04:17:05.791Z,0
2018-09-27T04:18:15.732Z,0
2018-09-27T04:19:25.897Z,0
2018-09-27T04:20:35.792Z,0
2018-09-27T04:21:46.076Z,0
2018-09-27T04:22:55.708Z,0
2018-09-27T04:24:05.818Z,0
2018-09-27T04:25:16.040Z,0
2018-09-27T04:26:25.660Z,0
2018-09-27T04:27:35.554Z,0
2018-09-27T04:28:45.436Z,0
2018-09-27T04:29:55.057Z,0
2018-09-27T04:31:04.946Z,0
2018-09-27T04:32:14.814Z,0
2018-09-27T04:33:24.487Z,0
2018-09-27T04:34:34.378Z,0
2018-09-27T04:35:43.998Z,0
2018-09-27T04:36:53.610Z,0
2018-09-27T04:38:03.232Z,0
2018-09-27T04:39:12.906Z,0
2018-09-27T04:40:23.078Z,0
2018-09-27T04:41:32.985Z,0
2018-09-27T04:42:43.153Z,0
2018-09-27T04:43:52.764Z,0
2018-09-27T04:45:02.655Z,0
2018-09-27T04:46:12.545Z,0
2018-09-27T04:47:22.475Z,0
2018-09-27T04:48:31.814Z,0
2018-09-27T04:49:41.430Z,0
2018-09-27T04:50:51.050Z,0
2018-09-27T04:52:01.114Z,0
2018-09-27T04:53:10.734Z,0
2018-09-27T04:54:20.654Z,0
2018-09-27T04:55:30.599Z,0
2018-09-27T04:56:40.772Z,0
2018-09-27T04:57:50.667Z,0
2018-09-27T04:59:00.558Z,0
2018-09-27T05:00:10.977Z,0
2018-09-27T05:01:20.131Z,0
2018-09-27T05:02:29.511Z,0
2018-09-27T05:03:39.197Z,0
2018-09-27T05:04:48.869Z,0
2018-09-27T05:05:58.488Z,0
2018-09-27T05:07:08.395Z,0
2018-09-27T05:08:18.314Z,0
2018-09-27T05:09:28.280Z,0
2018-09-27T05:10:37.901Z,0
2018-09-27T05:11:47.524Z,5
2018-09-27T05:12:57.422Z,5
2018-09-27T05:14:07.049Z,5
2018-09-27T05:15:16.948Z,5
2018-09-27T05:16:27.161Z,5
2018-09-27T05:17:36.811Z,5
2018-09-27T05:18:46.440Z,10
2018-09-27T05:19:56.337Z,10
2018-09-27T05:21:05.685Z,10
2018-09-27T05:22:15.578Z,10
2018-09-27T05:23:25.469Z,15
2018-09-27T05:24:35.086Z,15
2018-09-27T05:25:44.706Z,15
2018-09-27T05:26:54.322Z,20
2018-09-27T05:28:04.684Z,20
2018-09-27T05:29:14.313Z,20
2018-09-27T05:30:24.206Z,25
2018-09-27T05:31:34.083Z,25
2018-09-27T05:32:43.975Z,25
2018-09-27T05:33:53.933Z,30
2018-09-27T05:35:03.877Z,30
2018-09-27T05:36:13.495Z,30
2018-09-27T05:37:23.423Z,35
2018-09-27T05:38:33.313Z,35
2018-09-27T05:39:44.040Z,40
2018-09-27T05:40:54.364Z,40
2018-09-27T05:42:03.704Z,40
2018-09-27T05:43:13.874Z,45
2018-09-27T05:44:23.769Z,45
2018-09-27T05:45:33.864Z,50
2018-09-27T05:46:43.542Z,50
2018-09-27T05:47:52.607Z,50
2018-09-27T05:49:02.781Z,55
2018-09-27T05:50:12.414Z,55
2018-09-27T05:51:22.583Z,55
2018-09-27T05:52:32.479Z,60
2018-09-27T05:53:42.101Z,60
2018-09-27T05:54:51.989Z,65
2018-09-27T05:56:02.341Z,65
2018-09-27T05:57:12.109Z,65
2018-09-27T05:58:22.009Z,70
2018-09-27T05:59:31.903Z,70
2018-09-27T06:00:42.103Z,70
2018-09-27T06:01:51.770Z,75
2018-09-27T06:03:01.910Z,75
2018-09-27T06:04:11.267Z,75
2018-09-27T06:05:20.896Z,80
2018-09-27T06:06:30.232Z,80
2018-09-27T06:07:40.121Z,80
2018-09-27T06:08:50.293Z,85
2018-09-27T06:09:59.909Z,85
2018-09-27T06:11:09.533Z,85
2018-09-27T06:12:19.193Z,90
2018-09-27T06:13:28.812Z,90
2018-09-27T06:14:38.707Z,90
2018-09-27T06:15:48.633Z,90
2018-09-27T06:16:58.575Z,95
2018-09-27T06:18:08.534Z,95
2018-09-27T06:19:18.317Z,95
2018-09-27T06:20:28.003Z,95
2018-09-27T06:21:38.281Z,100
2018-09-27T06:22:48.502Z,100
2018-09-27T06:23:57.850Z,100
2018-09-27T06:25:07.230Z,100
2018-09-27T06:26:17.832Z,100
2018-09-27T06:27:28.078Z,105
2018-09-27T06:28:38.048Z,105
2018-09-27T06:29:47.975Z,105
2018-09-27T06:30:57.869Z,105
2018-09-27T06:32:06.939Z,110
2018-09-27T06:33:16.560Z,110
2018-09-27T06:34:26.455Z,110
2018-09-27T06:35:36.114Z,110
2018-09-27T06:36:46.000Z,110
2018-09-27T06:37:55.598Z,110
2018-09-27T06:39:05.487Z,115
2018-09-27T06:40:15.107Z,115
2018-09-27T06:41:25.060Z,115
2018-09-27T06:42:35.288Z,115
2018-09-27T06:43:44.997Z,115
2018-09-27T06:44:54.655Z,120
2018-09-27T06:46:04.796Z,120
2018-09-27T06:47:14.704Z,120
2018-09-27T06:48:24.649Z,120
2018-09-27T06:49:34.608Z,120
2018-09-27T06:50:44.590Z,120
2018-09-27T06:51:54.919Z,125
2018-09-27T06:53:05.360Z,125
2018-09-27T06:54:14.991Z,125
2018-09-27T06:55:26.233Z,125
2018-09-27T06:56:36.746Z,125
2018-09-27T06:57:46.080Z,125
2018-09-27T06:58:55.975Z,125
2018-09-27T07:00:05.879Z,125
2018-09-27T07:01:15.770Z,125
2018-09-27T07:02:25.753Z,125
2018-09-27T07:03:35.656Z,125
2018-09-27T07:04:45.590Z,125
2018-09-27T07:05:55.224Z,125
2018-09-27T07:07:04.908Z,125
2018-09-27T07:08:13.927Z,130
2018-09-27T07:09:23.822Z,130
2018-09-27T07:10:33.737Z,130
2018-09-27T07:11:43.953Z,130
2018-09-27T07:12:54.639Z,130
2018-09-27T07:14:04.056Z,130
2018-09-27T07:15:13.439Z,130
2018-09-27T07:16:23.316Z,130
2018-09-27T07:17:32.937Z,135
2018-09-27T07:18:43.264Z,135
2018-09-27T07:19:52.970Z,135
2018-09-27T07:21:02.865Z,135
2018-09-27T07:22:12.501Z,135
2018-09-27T07:23:22.415Z,135
2018-09-27T07:24:32.037Z,135
2018-09-27T07:25:41.929Z,135
2018-09-27T07:26:53.107Z,135
2018-09-27T07:28:03.299Z,140
2018-09-27T07:29:13.472Z,140
2018-09-27T07:30:23.141Z,140
2018-09-27T07:31:33.039Z,140
2018-09-27T07:32:43.942Z,140
2018-09-27T07:33:54.141Z,140
2018-09-27T07:35:03.497Z,140
2018-09-27T07:36:12.568Z,140
2018-09-27T07:37:22.430Z,140
2018-09-27T07:38:32.769Z,140
2018-09-27T07:39:42.714Z,145
2018-09-27T07:40:52.678Z,145
2018-09-27T07:42:02.586Z,145
2018-09-27T07:43:12.491Z,145
2018-09-27T07:44:21.843Z,145
2018-09-27T07:45:31.733Z,145
2018-09-27T07:46:41.359Z,145
2018-09-27T07:47:51.259Z,145
2018-09-27T07:49:00.877Z,145
2018-09-27T07:50:10.238Z,145
2018-09-27T07:51:19.592Z,145
2018-09-27T07:52:28.676Z,150
2018-09-27T07:53:38.360Z,150
2018-09-27T07:54:49.169Z,150
2018-09-27T07:55:59.382Z,150
2018-09-27T07:57:09.556Z,150
2018-09-27T07:58:19.727Z,150
2018-09-27T07:59:29.075Z,150
2018-09-27T08:00:38.967Z,150
2018-09-27T08:01:48.856Z,150
2018-09-27T08:03:00.064Z,155
2018-09-27T08:04:09.860Z,155
2018-09-27T08:05:20.126Z,155
2018-09-27T08:06:30.020Z,160
2018-09-27T08:07:39.927Z,160
2018-09-27T08:08:50.146Z,160
2018-09-27T08:10:00.073Z,165
2018-09-27T08:11:09.792Z,170
2018-09-27T08:12:19.774Z,175
2018-09-27T08:13:29.596Z,170
2018-09-27T08:14:40.016Z,165
2018-09-27T08:15:49.743Z,170
2018-09-27T08:16:59.997Z,170
2018-09-27T08:18:10.237Z,170
2018-09-27T08:19:19.861Z,170
2018-09-27T08:20:29.941Z,170
2018-09-27T08:21:39.548Z,170
2018-09-27T08:22:49.725Z,170
2018-09-27T08:24:00.353Z,170
2018-09-27T08:25:10.286Z,170
2018-09-27T08:26:20.465Z,170
2018-09-27T08:27:30.083Z,170
2018-09-27T08:28:39.706Z,175
2018-09-27T08:29:49.604Z,175
2018-09-27T08:30:59.760Z,175
2018-09-27T08:32:10.011Z,180
2018-09-27T08:33:19.905Z,180
2018-09-27T08:34:29.572Z,185
2018-09-27T08:35:39.748Z,185
2018-09-27T08:36:49.651Z,180
2018-09-27T08:37:59.271Z,185
2018-09-27T08:39:09.168Z,185
2018-09-27T08:40:19.152Z,180
2018-09-27T08:41:29.050Z,180
2018-09-27T08:42:38.669Z,180
2018-09-27T08:43:48.565Z,180
2018-09-27T08:44:59.509Z,185
2018-09-27T08:46:09.549Z,185
2018-09-27T08:47:19.745Z,190
2018-09-27T08:48:28.820Z,205
2018-09-27T08:49:39.029Z,230
2018-09-27T08:50:48.660Z,265
2018-09-27T08:51:58.840Z,300
2018-09-27T08:53:08.184Z,295
2018-09-27T08:54:17.817Z,280
2018-09-27T08:55:27.372Z,270
2018-09-27T08:56:37.744Z,265
2018-09-27T08:57:47.970Z,260
2018-09-27T08:58:58.139Z,250
2018-09-27T09:00:08.052Z,245
2018-09-27T09:01:18.265Z,240
2018-09-27T09:02:28.155Z,225
2018-09-27T09:03:39.096Z,215
2018-09-27T09:04:48.748Z,205
2018-09-27T09:05:58.693Z,210
2018-09-27T09:07:08.593Z,210
2018-09-27T09:08:17.710Z,210
2018-09-27T09:09:28.043Z,210
2018-09-27T09:10:37.666Z,205
2018-09-27T09:11:46.736Z,210
2018-09-27T09:12:56.626Z,195
2018-09-27T09:14:06.259Z,190
2018-09-27T09:15:16.155Z,190
2018-09-27T09:16:26.044Z,190
2018-09-27T09:17:35.947Z,190
2018-09-27T09:18:45.838Z,190
2018-09-27T09:19:55.461Z,195
2018-09-27T09:21:05.404Z,200
2018-09-27T09:22:15.307Z,200
2018-09-27T09:23:25.176Z,215
2018-09-27T09:24:35.699Z,215
2018-09-27T09:25:46.012Z,210
2018-09-27T09:26:56.236Z,210
2018-09-27T09:28:06.146Z,205
2018-09-27T09:29:16.137Z,215
2018-09-27T09:30:25.428Z,220
2018-09-27T09:31:35.615Z,210
2018-09-27T09:32:44.973Z,190
2018-09-27T09:33:55.024Z,200
2018-09-27T09:35:05.430Z,200
2018-09-27T09:36:14.998Z,200
2018-09-27T09:37:25.172Z,205
2018-09-27T09:38:35.321Z,215
2018-09-27T09:39:45.217Z,210
2018-09-27T09:40:55.383Z,205
2018-09-27T09:42:05.316Z,200
2018-09-27T09:43:15.218Z,195
2018-09-27T09:44:25.350Z,195
2018-09-27T09:45:35.553Z,195
2018-09-27T09:46:44.633Z,195
2018-09-27T09:47:54.314Z,195
2018-09-27T09:49:03.939Z,195
2018-09-27T09:50:14.036Z,195
2018-09-27T09:51:23.931Z,195
2018-09-27T09:52:33.830Z,195
2018-09-27T09:53:44.006Z,195
2018-09-27T09:54:54.184Z,195
2018-09-27T09:56:04.101Z,200
2018-09-27T09:57:14.278Z,195
2018-09-27T09:58:23.626Z,195
2018-09-27T09:59:33.246Z,195
2018-09-27T10:00:43.182Z,195
2018-09-27T10:01:52.804Z,200
2018-09-27T10:03:02.705Z,200
2018-09-27T10:04:12.056Z,205
2018-09-27T10:05:22.223Z,205
2018-09-27T10:06:32.399Z,215
2018-09-27T10:07:42.099Z,225
2018-09-27T10:08:51.524Z,225
2018-09-27T10:10:01.438Z,225
2018-09-27T10:11:10.791Z,250
2018-09-27T10:12:20.978Z,235
2018-09-27T10:13:31.185Z,220
2018-09-27T10:14:40.805Z,210
2018-09-27T10:15:50.736Z,210
2018-09-27T10:17:00.630Z,205
2018-09-27T10:18:10.527Z,205
2018-09-27T10:19:20.423Z,205
2018-09-27T10:20:29.226Z,205
2018-09-27T10:21:39.644Z,205
2018-09-27T10:22:49.334Z,205
2018-09-27T10:23:58.700Z,205
2018-09-27T10:25:08.361Z,205
2018-09-27T10:26:18.546Z,205
2018-09-27T10:27:28.390Z,205
2018-09-27T10:28:38.341Z,205
2018-09-27T10:29:48.527Z,205
2018-09-27T10:30:58.174Z,205
2018-09-27T10:32:08.070Z,205
2018-09-27T10:33:17.963Z,205
2018-09-27T10:34:28.545Z,205
2018-09-27T10:35:38.734Z,205
2018-09-27T10:36:48.039Z,205
2018-09-27T10:37:57.939Z,205
2018-09-27T10:39:07.837Z,205
2018-09-27T10:40:17.425Z,205
2018-09-27T10:41:27.602Z,205
2018-09-27T10:42:36.996Z,205
2018-09-27T10:43:46.903Z,205
2018-09-27T10:44:56.874Z,205
2018-09-27T10:46:06.828Z,205
2018-09-27T10:47:16.444Z,205
2018-09-27T10:48:26.344Z,205
2018-09-27T10:49:36.236Z,205
2018-09-27T10:50:45.885Z,205
2018-09-27T10:51:55.774Z,205
2018-09-27T10:53:05.440Z,210
2018-09-27T10:54:15.615Z,210
2018-09-27T10:55:25.514Z,210
2018-09-27T10:56:35.417Z,210
2018-09-27T10:57:45.345Z,215
2018-09-27T10:58:55.069Z,210
2018-09-27T11:00:05.031Z,210
2018-09-27T11:01:14.698Z,210
2018-09-27T11:02:24.566Z,210
2018-09-27T11:03:34.462Z,210
2018-09-27T11:04:43.817Z,210
2018-09-27T11:05:53.781Z,210
2018-09-27T11:07:03.965Z,210
2018-09-27T11:08:14.137Z,210
2018-09-27T11:09:23.761Z,210
2018-09-27T11:10:33.925Z,210
2018-09-27T11:11:43.990Z,210
2018-09-27T11:12:53.930Z,210
2018-09-27T11:14:03.550Z,215
2018-09-27T11:15:12.902Z,215
2018-09-27T11:16:22.805Z,220
2018-09-27T11:17:32.978Z,220
2018-09-27T11:18:42.570Z,215
2018-09-27T11:19:51.924Z,220
2018-09-27T11:21:01.826Z,220
2018-09-27T11:22:12.216Z,220
2018-09-27T11:23:22.122Z,220
2018-09-27T11:24:32.657Z,220
2018-09-27T11:25:42.281Z,220
2018-09-27T11:26:52.185Z,225
2018-09-27T11:28:02.129Z,225
2018-09-27T11:29:12.399Z,225
2018-09-27T11:30:22.265Z,225
2018-09-27T11:31:32.166Z,225
2018-09-27T11:32:42.068Z,225
2018-09-27T11:33:52.275Z,225
2018-09-27T11:35:02.459Z,225
2018-09-27T11:36:12.698Z,225
2018-09-27T11:37:22.593Z,225
2018-09-27T11:38:32.701Z,230
2018-09-27T11:39:42.801Z,230
2018-09-27T11:40:52.696Z,230
2018-09-27T11:42:02.053Z,235
2018-09-27T11:43:11.960Z,235
2018-09-27T11:44:22.251Z,235
2018-09-27T11:45:31.602Z,245
2018-09-27T11:46:41.742Z,250
2018-09-27T11:47:51.646Z,560
2018-09-27T11:49:02.450Z,810
2018-09-27T11:50:13.529Z,720
2018-09-27T11:51:23.434Z,510
2018-09-27T11:52:33.352Z,430
2018-09-27T11:53:43.527Z,430
2018-09-27T11:54:53.483Z,355
2018-09-27T11:56:03.560Z,285
2018-09-27T11:57:13.178Z,295
2018-09-27T11:58:23.358Z,290
2018-09-27T11:59:32.996Z,295
2018-09-27T12:00:42.950Z,310
2018-09-27T12:01:53.465Z,320
2018-09-27T12:03:03.646Z,335
2018-09-27T12:04:13.290Z,310
2018-09-27T12:05:23.468Z,300
2018-09-27T12:06:33.939Z,290
2018-09-27T12:07:44.854Z,350
2018-09-27T12:08:54.592Z,385
2018-09-27T12:10:04.744Z,350
2018-09-27T12:11:14.105Z,300
2018-09-27T12:12:24.008Z,310
2018-09-27T12:13:34.414Z,360
2018-09-27T12:14:44.970Z,575
2018-09-27T12:15:55.237Z,480
2018-09-27T12:17:05.132Z,410
2018-09-27T12:18:14.688Z,380
2018-09-27T12:19:24.879Z,380
2018-09-27T12:20:34.509Z,430
2018-09-27T12:21:44.150Z,410
2018-09-27T12:22:54.150Z,420
2018-09-27T12:24:03.796Z,415
2018-09-27T12:25:13.428Z,420
2018-09-27T12:26:22.813Z,430
2018-09-27T12:27:32.713Z,425
2018-09-27T12:28:43.553Z,410
2018-09-27T12:29:53.805Z,460
2018-09-27T12:31:04.097Z,370
2018-09-27T12:32:13.786Z,395
2018-09-27T12:33:23.455Z,315
2018-09-27T12:34:33.626Z,440
2018-09-27T12:35:43.253Z,440
2018-09-27T12:36:53.291Z,595
2018-09-27T12:38:03.194Z,515
2018-09-27T12:39:13.436Z,680
2018-09-27T12:40:23.646Z,495
2018-09-27T12:41:33.859Z,475
2018-09-27T12:42:44.103Z,360
2018-09-27T12:43:53.786Z,425
2018-09-27T12:45:04.184Z,465
2018-09-27T12:46:15.339Z,720
2018-09-27T12:47:25.228Z,720
2018-09-27T12:48:36.361Z,940
2018-09-27T12:49:46.589Z,1045
2018-09-27T12:50:56.978Z,675
2018-09-27T12:52:08.531Z,560
2018-09-27T12:53:18.323Z,895
2018-09-27T12:54:27.960Z,1090
2018-09-27T12:55:38.136Z,750
2018-09-27T12:56:48.317Z,465
2018-09-27T12:57:58.269Z,390
2018-09-27T12:59:07.624Z,345
2018-09-27T13:00:17.527Z,285
2018-09-27T13:01:26.663Z,355
2018-09-27T13:02:36.478Z,385
2018-09-27T13:03:46.262Z,500
2018-09-27T13:04:56.165Z,705
2018-09-27T13:06:06.076Z,610
2018-09-27T13:07:16.269Z,290
2018-09-27T13:08:26.249Z,295
2018-09-27T13:09:37.065Z,285
2018-09-27T13:10:47.309Z,280
2018-09-27T13:11:57.393Z,285
2018-09-27T13:13:07.453Z,320
2018-09-27T13:14:16.632Z,395
2018-09-27T13:15:26.263Z,325
2018-09-27T13:16:36.171Z,375
2018-09-27T13:17:47.245Z,400
2018-09-27T13:19:00.679Z,445
2018-09-27T13:20:11.137Z,380
2018-09-27T13:21:20.207Z,345
2018-09-27T13:22:29.872Z,345
2018-09-27T13:23:40.063Z,380
2018-09-27T13:24:50.452Z,515
2018-09-27T13:26:00.094Z,525
2018-09-27T13:27:10.445Z,495
2018-09-27T13:28:20.163Z,530
2018-09-27T13:29:30.071Z,550
2018-09-27T13:30:39.455Z,545
2018-09-27T13:31:49.375Z,595
2018-09-27T13:32:59.489Z,695
2018-09-27T13:34:10.400Z,935
2018-09-27T13:35:20.035Z,930
2018-09-27T13:36:29.936Z,655
2018-09-27T13:37:39.869Z,565
2018-09-27T13:38:49.779Z,525
2018-09-27T13:39:59.973Z,520
2018-09-27T13:41:09.697Z,525
2018-09-27T13:42:19.602Z,560
2018-09-27T13:43:29.801Z,675
2018-09-27T13:44:39.703Z,505
2018-09-27T13:45:49.610Z,555
2018-09-27T13:46:59.515Z,525
2018-09-27T13:48:09.425Z,595
2018-09-27T13:49:20.025Z,650
2018-09-27T13:50:29.935Z,735
2018-09-27T13:51:39.835Z,785
2018-09-27T13:52:49.723Z,640
2018-09-27T13:53:59.344Z,755
2018-09-27T13:55:09.674Z,655
2018-09-27T13:56:18.979Z,1145
2018-09-27T13:57:28.611Z,630
2018-09-27T13:58:38.440Z,400
2018-09-27T13:59:48.386Z,345
2018-09-27T14:00:58.145Z,420
2018-09-27T14:02:07.560Z,480
2018-09-27T14:03:18.010Z,315
2018-09-27T14:04:27.938Z,490
2018-09-27T14:05:37.818Z,420
2018-09-27T14:06:47.745Z,445
2018-09-27T14:07:57.920Z,385
2018-09-27T14:09:08.152Z,390
2018-09-27T14:10:18.052Z,625
2018-09-27T14:11:28.223Z,390
2018-09-27T14:12:38.128Z,390
2018-09-27T14:13:48.310Z,920
2018-09-27T14:14:57.936Z,1790
2018-09-27T14:16:07.558Z,2320
2018-09-27T14:17:17.737Z,2340
2018-09-27T14:18:27.086Z,1980
2018-09-27T14:19:37.004Z,1310
2018-09-27T14:20:47.183Z,915
2018-09-27T14:21:56.811Z,415
2018-09-27T14:23:06.716Z,405
2018-09-27T14:24:16.641Z,375
2018-09-27T14:25:26.823Z,510
2018-09-27T14:26:36.181Z,400
2018-09-27T14:27:45.829Z,345
2018-09-27T14:28:55.455Z,340
2018-09-27T14:30:05.321Z,350
2018-09-27T14:31:15.455Z,360
2018-09-27T14:32:25.862Z,350
2018-09-27T14:33:35.612Z,310
2018-09-27T14:34:44.964Z,340
2018-09-27T14:35:54.465Z,375
2018-09-27T14:37:03.825Z,510
2018-09-27T14:38:14.003Z,445
2018-09-27T14:39:23.996Z,545
2018-09-27T14:40:33.942Z,460
2018-09-27T14:41:43.848Z,445
2018-09-27T14:42:54.341Z,445
2018-09-27T14:44:04.300Z,435
2018-09-27T14:45:14.240Z,450
2018-09-27T14:46:24.141Z,455
2018-09-27T14:47:34.349Z,450
2018-09-27T14:48:44.309Z,450
2018-09-27T14:49:53.972Z,475
2018-09-27T14:51:03.894Z,490
2018-09-27T14:52:13.794Z,480
2018-09-27T14:53:23.977Z,470
2018-09-27T14:54:34.151Z,480
2018-09-27T14:55:44.071Z,490
2018-09-27T14:56:53.703Z,510
2018-09-27T14:58:03.080Z,515
2018-09-27T14:59:13.259Z,530
2018-09-27T15:00:22.907Z,515
2018-09-27T15:01:33.069Z,465
2018-09-27T15:02:43.184Z,425
2018-09-27T15:03:52.837Z,385
2018-09-27T15:05:02.991Z,350
2018-09-27T15:06:12.344Z,355
2018-09-27T15:07:22.300Z,365
2018-09-27T15:08:32.202Z,385
2018-09-27T15:09:42.678Z,400
2018-09-27T15:10:53.444Z,405
2018-09-27T15:12:02.440Z,420
2018-09-27T15:13:12.069Z,420
2018-09-27T15:14:22.018Z,420
2018-09-27T15:15:31.648Z,420
2018-09-27T15:16:41.833Z,420
2018-09-27T15:17:51.719Z,435
2018-09-27T15:19:01.862Z,420
2018-09-27T15:20:12.074Z,410
2018-09-27T15:21:22.353Z,400
2018-09-27T15:22:32.192Z,405
2018-09-27T15:23:42.499Z,400
2018-09-27T15:24:52.682Z,400
2018-09-27T15:26:02.309Z,395
2018-09-27T15:27:11.951Z,385
2018-09-27T15:28:21.937Z,380
2018-09-27T15:29:32.106Z,495
2018-09-27T15:30:42.251Z,395
2018-09-27T15:31:51.877Z,550
2018-09-27T15:33:01.502Z,510
2018-09-27T15:34:10.892Z,485
2018-09-27T15:35:20.799Z,775
2018-09-27T15:36:31.089Z,420
2018-09-27T15:37:41.334Z,420
2018-09-27T15:38:50.961Z,405
2018-09-27T15:40:01.271Z,375
2018-09-27T15:41:10.985Z,370
2018-09-27T15:42:20.890Z,370
2018-09-27T15:43:30.783Z,330
2018-09-27T15:44:40.458Z,305
2018-09-27T15:45:50.663Z,280
2018-09-27T15:47:00.896Z,270
2018-09-27T15:48:10.799Z,260
2018-09-27T15:49:20.459Z,255
2018-09-27T15:50:30.364Z,245
2018-09-27T15:51:40.347Z,250
2018-09-27T15:52:50.256Z,245
2018-09-27T15:53:59.902Z,245
2018-09-27T15:55:09.534Z,260
2018-09-27T15:56:19.706Z,270
2018-09-27T15:57:29.610Z,270
2018-09-27T15:58:40.063Z,270
2018-09-27T15:59:49.610Z,265
2018-09-27T16:00:59.234Z,255
2018-09-27T16:02:09.143Z,280
2018-09-27T16:03:19.558Z,260
2018-09-27T16:04:29.770Z,310
2018-09-27T16:05:39.128Z,255
2018-09-27T16:06:49.067Z,270
2018-09-27T16:07:58.146Z,240
2018-09-27T16:09:07.774Z,245
2018-09-27T16:10:17.681Z,245
2018-09-27T16:11:27.588Z,270
2018-09-27T16:12:37.765Z,195
2018-09-27T16:13:47.415Z,180
2018-09-27T16:14:58.112Z,165
2018-09-27T16:16:08.190Z,160
2018-09-27T16:17:18.118Z,155
2018-09-27T16:18:28.272Z,150
2018-09-27T16:19:38.184Z,150
2018-09-27T16:20:48.105Z,140
2018-09-27T16:21:58.678Z,140
2018-09-27T16:23:08.651Z,135
2018-09-27T16:24:18.327Z,135
2018-09-27T16:25:27.672Z,135
2018-09-27T16:26:37.369Z,130